Pagrindinis puslapis
METAR-TAF:

METAR-TAF

Oro uostai :

Konija, Turkija

platuma: 37-58N, ilguma: 032-33E, Aukštis: 1032 m

Dabartinis oras

Ataskaita buvo paskelbta 1 valandą ir 6 minutes, ne 00:50 UTC
Vėjas 4 kt iš Pietų/Pietryčių
Temperatūra 12°C
Drėgmė 71%
Slėgis 1017 hPa
Matomumas 10 km arba daugiau
Išsisklaidę debesys ne aukštis 4000 ft

METAR: LTAN 170050Z 15004KT 9999 SCT040 12/07 Q1017 NOSIG

Laikas: 04:56 (01:56 UTC)

Prognozė

Ataskaita buvo paskelbta 3 valandos ir 16 minutes, ne 22:40 UTC
Prognozė galioja nuo 17 metu 00 UTC su 17 metu 09 UTC
Vėjas 6 kt iš Šiaurės/Šiaurės Vakarų
Matomumas 10 km arba daugiau
Išsisklaidę debesys ne aukštis 4000 ft

TAF: LTAN 162240Z 1700/1709 34006KT 9999 SCT040

Orai ataskaitas ir orų prognozės (METAR, TAF).

turimą stotys yra geltonos ir raudonos taškus žemėlapyje.

Perkelti pele per norėdami pamatyti stoties vardą.

Tada spustelėkite, norėdami matyti oro stebėjimo ir prognozės.

Norėdami pakeisti žemėlapį: spustelėkite ant žalios mygtukų su juodo kryžiaus žemyn,; žalią mygtuką su brūkšneliu, jei norite nutolinti; arba žalių rodyklių gretimoms žemėlapius.


METAR-TAF: